createdAt,value
2022-11-23T00:02:12.148Z,3.57
2022-11-23T00:04:40.680Z,3.50
2022-11-23T00:07:09.108Z,3.43
2022-11-23T00:09:37.446Z,2.90
2022-11-23T00:12:07.956Z,3.23
2022-11-23T00:14:36.783Z,3.40
2022-11-23T00:19:50.822Z,2.43
2022-11-23T00:22:19.288Z,2.40
2022-11-23T00:24:48.921Z,1.70
2022-11-23T00:27:18.698Z,2.13
2022-11-23T00:29:48.482Z,1.50
2022-11-23T00:32:17.054Z,1.43
2022-11-23T00:34:45.410Z,1.70
2022-11-23T00:37:14.102Z,1.70
2022-11-23T00:39:42.393Z,1.80
2022-11-23T00:42:11.195Z,2.00
2022-11-23T00:44:40.966Z,2.27
2022-11-23T00:47:09.509Z,2.57
2022-11-23T00:49:37.899Z,2.73
2022-11-23T00:52:06.475Z,2.70
2022-11-23T00:54:34.846Z,2.20
2022-11-23T00:57:04.053Z,2.50
2022-11-23T00:59:32.650Z,2.70
2022-11-23T01:02:03.450Z,2.70
2022-11-23T01:04:33.343Z,2.93
2022-11-23T01:07:01.778Z,2.90
2022-11-23T01:09:30.480Z,3.13
2022-11-23T01:11:59.087Z,3.00
2022-11-23T01:14:27.471Z,2.80
2022-11-23T01:16:55.859Z,2.17
2022-11-23T01:19:25.556Z,2.20
2022-11-23T01:21:53.983Z,1.63
2022-11-23T01:24:25.767Z,2.13
2022-11-23T01:26:54.833Z,1.50
2022-11-23T01:29:23.733Z,1.83
2022-11-23T01:31:52.370Z,2.30
2022-11-23T01:34:20.766Z,2.57
2022-11-23T01:36:50.601Z,1.60
2022-11-23T01:39:18.993Z,2.00
2022-11-23T01:41:50.492Z,2.20
2022-11-23T01:44:27.973Z,2.33
2022-11-23T01:46:59.327Z,2.50
2022-11-23T01:49:31.293Z,2.47
2022-11-23T01:52:05.183Z,2.40
2022-11-23T01:54:38.970Z,2.37
2022-11-23T01:57:10.165Z,2.60
2022-11-23T01:59:39.669Z,3.00
2022-11-23T02:02:11.340Z,2.50
2022-11-23T02:04:44.620Z,2.50
2022-11-23T02:07:18.274Z,2.03
2022-11-23T02:09:47.838Z,1.80
2022-11-23T02:12:16.379Z,2.33
2022-11-23T02:14:46.396Z,2.07
2022-11-23T02:17:15.062Z,2.00
2022-11-23T02:19:53.242Z,2.47
2022-11-23T02:22:30.528Z,3.67
2022-11-23T02:25:02.155Z,2.40
2022-11-23T02:27:33.436Z,4.10
2022-11-23T02:30:03.555Z,5.27
2022-11-23T02:32:32.807Z,3.97
2022-11-23T02:35:01.196Z,2.60
2022-11-23T02:37:29.772Z,2.10
2022-11-23T02:39:59.677Z,2.30
2022-11-23T02:42:30.146Z,3.57
2022-11-23T02:45:18.364Z,2.83
2022-11-23T02:47:47.808Z,1.97
2022-11-23T02:50:16.341Z,2.10
2022-11-23T02:52:45.127Z,2.27
2022-11-23T02:55:16.531Z,2.33
2022-11-23T02:57:44.911Z,2.63
2022-11-23T03:00:18.252Z,3.27
2022-11-23T03:02:47.012Z,4.40
2022-11-23T03:05:15.629Z,3.53
2022-11-23T03:08:02.602Z,2.80
2022-11-23T03:10:31.029Z,3.03
2022-11-23T03:12:59.549Z,3.30
2022-11-23T03:15:32.899Z,2.80
2022-11-23T03:18:01.522Z,2.80
2022-11-23T03:20:31.120Z,3.53
2022-11-23T03:23:00.125Z,2.37
2022-11-23T03:25:28.547Z,2.43
2022-11-23T03:27:58.350Z,2.67
2022-11-23T03:30:26.864Z,2.10
2022-11-23T03:32:57.354Z,2.27
2022-11-23T03:35:26.337Z,2.40
2022-11-23T03:38:15.233Z,1.63
2022-11-23T03:40:46.761Z,1.80
2022-11-23T03:43:34.040Z,1.50
2022-11-23T03:46:02.426Z,1.50
2022-11-23T03:48:32.216Z,1.50
2022-11-23T03:51:00.579Z,1.70
2022-11-23T03:53:28.990Z,1.40
2022-11-23T03:55:58.285Z,1.43
2022-11-23T03:58:29.645Z,1.73
2022-11-23T04:01:00.526Z,1.50
2022-11-23T04:03:29.464Z,1.50
2022-11-23T04:06:22.438Z,1.40
2022-11-23T04:09:23.464Z,1.20
2022-11-23T04:12:12.306Z,1.40
2022-11-23T04:14:41.709Z,1.70
2022-11-23T04:17:14.020Z,2.20
2022-11-23T04:19:44.326Z,1.60
2022-11-23T04:22:14.126Z,1.80
2022-11-23T04:24:44.033Z,1.80
2022-11-23T04:27:12.373Z,1.90
2022-11-23T04:29:41.438Z,2.07
2022-11-23T04:32:11.843Z,1.90
2022-11-23T04:34:40.906Z,1.90
2022-11-23T04:37:16.103Z,2.30
2022-11-23T04:39:46.106Z,1.70
2022-11-23T04:42:22.510Z,1.83
2022-11-23T04:44:57.402Z,2.43
2022-11-23T04:47:26.301Z,2.17
2022-11-23T04:49:59.034Z,2.23
2022-11-23T04:52:31.848Z,2.30
2022-11-23T04:55:00.477Z,2.00
2022-11-23T04:57:31.327Z,2.23
2022-11-23T04:59:59.727Z,2.27
2022-11-23T05:02:31.299Z,2.40
2022-11-23T05:05:20.108Z,2.10
2022-11-23T05:07:50.065Z,2.40
2022-11-23T05:10:20.801Z,1.83
2022-11-23T05:12:51.490Z,2.30
2022-11-23T05:15:19.927Z,2.10
2022-11-23T05:17:48.624Z,2.10
2022-11-23T05:20:24.962Z,2.20
2022-11-23T05:22:55.213Z,1.97
2022-11-23T05:25:27.167Z,2.10
2022-11-23T05:28:11.390Z,2.20
2022-11-23T05:30:46.053Z,2.47
2022-11-23T05:33:14.848Z,2.17
2022-11-23T05:35:47.229Z,2.10
2022-11-23T05:38:18.570Z,1.83
2022-11-23T05:40:47.239Z,2.50
2022-11-23T05:43:18.411Z,1.97
2022-11-23T05:45:46.905Z,2.10
2022-11-23T05:48:16.975Z,2.23
2022-11-23T05:50:54.989Z,2.20
2022-11-23T05:53:32.309Z,2.07
2022-11-23T05:56:10.487Z,2.60
2022-11-23T05:58:56.669Z,2.50
2022-11-23T06:01:25.333Z,2.17
2022-11-23T06:03:57.274Z,2.50
2022-11-23T06:06:27.383Z,2.57
2022-11-23T06:08:57.158Z,2.43
2022-11-23T06:11:25.951Z,2.20
2022-11-23T06:14:04.597Z,2.13
2022-11-23T06:16:33.797Z,2.93
2022-11-23T06:19:14.646Z,2.70
2022-11-23T06:21:49.006Z,2.80
2022-11-23T06:24:21.526Z,3.17
2022-11-23T06:27:02.158Z,3.00
2022-11-23T06:29:31.029Z,2.40
2022-11-23T06:31:59.743Z,2.63
2022-11-23T06:34:28.346Z,2.80
2022-11-23T06:36:57.811Z,2.80
2022-11-23T06:39:27.676Z,2.73
2022-11-23T06:42:06.497Z,2.70
2022-11-23T06:44:44.659Z,2.50
2022-11-23T06:47:16.870Z,2.50
2022-11-23T06:49:46.807Z,2.63
2022-11-23T06:52:23.130Z,2.67
2022-11-23T06:54:57.820Z,2.70
2022-11-23T06:57:27.207Z,2.80
2022-11-23T06:59:57.497Z,2.50
2022-11-23T07:02:33.791Z,2.20
2022-11-23T07:05:02.747Z,1.90
2022-11-23T07:07:33.048Z,2.20
2022-11-23T07:10:11.246Z,2.40
2022-11-23T07:12:48.018Z,2.30
2022-11-23T07:15:20.790Z,2.10
2022-11-23T07:17:50.018Z,2.17
2022-11-23T07:20:20.889Z,2.00
2022-11-23T07:22:49.574Z,2.00
2022-11-23T07:25:20.774Z,2.20
2022-11-23T07:27:55.548Z,2.30
2022-11-23T07:30:29.137Z,3.13
2022-11-23T07:33:01.002Z,3.70
2022-11-23T07:35:32.824Z,4.10
2022-11-23T07:38:03.626Z,3.30
2022-11-23T07:40:37.292Z,3.00
2022-11-23T07:43:07.640Z,8.30
2022-11-23T07:45:37.363Z,4.27
2022-11-23T07:48:09.307Z,3.00
2022-11-23T07:50:40.518Z,4.20
2022-11-23T07:53:09.204Z,4.27
2022-11-23T07:55:43.995Z,4.03
2022-11-23T07:58:14.835Z,3.70
2022-11-23T08:00:43.322Z,7.73
2022-11-23T08:03:31.145Z,7.37
2022-11-23T08:05:59.584Z,3.47
2022-11-23T08:08:28.101Z,10.80
2022-11-23T08:10:57.918Z,6.07
2022-11-23T08:13:26.269Z,4.80
2022-11-23T08:15:55.949Z,4.20
2022-11-23T08:18:25.447Z,3.13
2022-11-23T08:20:53.850Z,2.90
2022-11-23T08:23:22.960Z,3.00
2022-11-23T08:25:53.858Z,2.60
2022-11-23T08:28:23.834Z,2.27
2022-11-23T08:30:52.367Z,2.53
2022-11-23T08:33:20.820Z,2.20
2022-11-23T08:35:49.290Z,2.70
2022-11-23T08:38:17.822Z,2.47
2022-11-23T08:40:46.191Z,2.70
2022-11-23T08:43:16.853Z,2.60
2022-11-23T08:45:47.035Z,2.40
2022-11-23T08:48:15.496Z,2.97
2022-11-23T08:50:44.562Z,3.00
2022-11-23T08:53:13.176Z,2.87
2022-11-23T08:55:43.587Z,2.50
2022-11-23T08:58:15.391Z,2.67
2022-11-23T09:00:46.138Z,2.60
2022-11-23T09:03:16.176Z,2.90
2022-11-23T09:05:45.594Z,2.47
2022-11-23T09:08:16.522Z,2.50
2022-11-23T09:10:45.426Z,2.57
2022-11-23T09:13:13.923Z,3.03
2022-11-23T09:15:42.416Z,2.30
2022-11-23T09:18:11.622Z,2.33
2022-11-23T09:20:42.419Z,2.60
2022-11-23T09:23:14.257Z,2.20
2022-11-23T09:25:43.319Z,2.50
2022-11-23T09:28:12.780Z,2.33
2022-11-23T09:30:41.312Z,2.27
2022-11-23T09:33:09.962Z,2.20
2022-11-23T09:35:43.633Z,2.33
2022-11-23T09:38:17.950Z,2.70
2022-11-23T09:40:46.375Z,2.60
2022-11-23T09:43:35.493Z,2.23
2022-11-23T09:46:14.228Z,2.20
2022-11-23T09:48:57.994Z,3.00
2022-11-23T09:51:26.301Z,2.60
2022-11-23T09:54:03.628Z,3.00
2022-11-23T09:56:35.209Z,3.17
2022-11-23T09:59:06.694Z,2.87
2022-11-23T10:01:35.147Z,3.13
2022-11-23T10:04:06.923Z,3.53
2022-11-23T10:06:40.730Z,3.80
2022-11-23T10:09:24.335Z,3.77
2022-11-23T10:12:13.890Z,2.93
2022-11-23T10:14:58.614Z,3.80
2022-11-23T10:17:38.833Z,3.83
2022-11-23T10:20:22.791Z,3.03
2022-11-23T10:22:58.713Z,3.97
2022-11-23T10:25:38.772Z,3.43
2022-11-23T10:28:14.490Z,3.33
2022-11-23T10:30:43.431Z,3.10
2022-11-23T10:33:23.244Z,3.67
2022-11-23T10:35:51.672Z,3.07
2022-11-23T10:38:22.075Z,3.20
2022-11-23T10:41:02.976Z,3.10
2022-11-23T10:43:36.037Z,3.10
2022-11-23T10:46:31.073Z,3.17
2022-11-23T10:49:15.956Z,3.30
2022-11-23T10:51:55.023Z,2.77
2022-11-23T10:54:31.407Z,2.33
2022-11-23T10:57:04.598Z,2.70
2022-11-23T10:59:38.922Z,2.60
2022-11-23T11:02:18.641Z,2.20
2022-11-23T11:04:48.527Z,2.57
2022-11-23T11:07:29.920Z,2.80
2022-11-23T11:10:01.195Z,2.47
2022-11-23T11:12:35.669Z,2.67
2022-11-23T11:15:15.601Z,2.47
2022-11-23T11:17:44.318Z,2.77
2022-11-23T11:20:34.015Z,4.60
2022-11-23T11:23:05.488Z,2.60
2022-11-23T11:25:38.077Z,3.00
2022-11-23T11:28:22.521Z,2.63
2022-11-23T11:31:00.698Z,2.30
2022-11-23T11:33:36.460Z,2.27
2022-11-23T11:36:07.335Z,2.40
2022-11-23T11:38:38.065Z,2.13
2022-11-23T11:41:09.716Z,3.13
2022-11-23T11:43:43.729Z,2.30
2022-11-23T11:46:31.279Z,2.30
2022-11-23T11:49:05.753Z,2.37
2022-11-23T11:51:40.440Z,2.77
2022-11-23T11:54:19.698Z,2.13
2022-11-23T11:56:51.989Z,2.40
2022-11-23T11:59:29.521Z,2.50
2022-11-23T12:02:04.713Z,2.40
2022-11-23T12:04:42.774Z,2.50
2022-11-23T12:07:17.400Z,2.60
2022-11-23T12:09:50.853Z,2.50
2022-11-23T12:12:28.224Z,2.70
2022-11-23T12:14:58.914Z,2.33
2022-11-23T12:18:05.121Z,2.40
2022-11-23T12:20:44.809Z,2.30
2022-11-23T12:23:24.629Z,2.30
2022-11-23T12:26:05.728Z,2.33
2022-11-23T12:28:49.968Z,2.60
2022-11-23T12:31:27.028Z,2.73
2022-11-23T12:34:08.875Z,2.43
2022-11-23T12:36:50.911Z,2.90
2022-11-23T12:39:33.880Z,4.20
2022-11-23T12:42:11.066Z,4.23
2022-11-23T12:44:57.036Z,3.97
2022-11-23T12:47:53.943Z,4.30
2022-11-23T12:50:31.567Z,3.90
2022-11-23T12:53:07.211Z,3.27
2022-11-23T12:55:49.987Z,3.33
2022-11-23T12:58:26.940Z,4.03
2022-11-23T13:01:02.325Z,4.53
2022-11-23T13:04:10.177Z,2.40
2022-11-23T13:07:30.619Z,3.00
2022-11-23T13:10:19.702Z,2.37
2022-11-23T13:16:22.446Z,3.23
2022-11-23T13:19:11.633Z,2.90
2022-11-23T13:21:42.631Z,2.80
2022-11-23T13:24:36.101Z,5.53
2022-11-23T13:27:41.948Z,4.33
2022-11-23T13:30:23.984Z,3.50
2022-11-23T13:33:11.671Z,3.40
2022-11-23T13:36:07.665Z,4.03
2022-11-23T13:38:40.883Z,4.30
2022-11-23T13:41:58.071Z,3.70
2022-11-23T13:44:31.522Z,4.77
2022-11-23T13:47:08.778Z,4.00
2022-11-23T13:49:42.597Z,3.97
2022-11-23T13:52:36.933Z,3.80
2022-11-23T13:55:20.422Z,3.50
2022-11-23T13:58:22.263Z,3.17
2022-11-23T14:00:52.325Z,3.37
2022-11-23T14:03:53.019Z,3.50
2022-11-23T14:06:35.024Z,3.80
2022-11-23T14:09:12.643Z,3.80
2022-11-23T14:11:52.053Z,5.10
2022-11-23T14:14:23.567Z,4.00
2022-11-23T14:17:19.972Z,4.30
2022-11-23T14:20:13.613Z,3.37
2022-11-23T14:22:50.073Z,8.60
2022-11-23T14:25:43.517Z,4.60
2022-11-23T14:28:28.361Z,3.60
2022-11-23T14:31:10.071Z,3.50
2022-11-23T14:33:44.019Z,4.30
2022-11-23T14:36:24.432Z,3.97
2022-11-23T14:39:11.154Z,4.90
2022-11-23T14:41:42.483Z,4.13
2022-11-23T14:44:14.981Z,4.73
2022-11-23T14:47:01.715Z,5.07
2022-11-23T14:49:30.557Z,5.13
2022-11-23T14:51:59.636Z,5.20
2022-11-23T14:54:33.272Z,5.07
2022-11-23T14:57:05.345Z,4.33
2022-11-23T14:59:37.629Z,4.40
2022-11-23T15:02:16.629Z,5.60
2022-11-23T15:04:59.403Z,6.40
2022-11-23T15:07:35.045Z,5.57
2022-11-23T15:10:10.163Z,15.27
2022-11-23T15:12:44.927Z,25.83
2022-11-23T15:15:20.586Z,48.00
2022-11-23T15:17:56.314Z,41.33
2022-11-23T15:20:29.364Z,38.27
2022-11-23T15:23:01.897Z,18.83
2022-11-23T15:25:30.549Z,7.80
2022-11-23T15:28:00.446Z,9.70
2022-11-23T15:30:30.506Z,31.40
2022-11-23T15:33:03.853Z,18.30
2022-11-23T15:35:34.306Z,16.60
2022-11-23T15:38:03.549Z,14.07
2022-11-23T15:40:37.239Z,21.67
2022-11-23T15:43:07.003Z,12.97
2022-11-23T15:45:41.144Z,6.67
2022-11-23T15:48:14.692Z,6.93
2022-11-23T15:50:53.352Z,6.27
2022-11-23T15:53:25.709Z,5.90
2022-11-23T15:55:57.224Z,7.33
2022-11-23T15:58:28.280Z,6.20
2022-11-23T16:01:06.583Z,5.33
2022-11-23T16:03:41.625Z,5.43
2022-11-23T16:06:20.479Z,5.10
2022-11-23T16:08:48.914Z,6.40
2022-11-23T16:11:23.244Z,5.87
2022-11-23T16:14:12.534Z,4.77
2022-11-23T16:16:45.558Z,4.83
2022-11-23T16:19:33.818Z,5.80
2022-11-23T16:22:05.064Z,5.97
2022-11-23T16:24:37.393Z,5.60
2022-11-23T16:27:14.328Z,6.53
2022-11-23T16:29:44.184Z,6.27
2022-11-23T16:32:25.329Z,6.70
2022-11-23T16:34:54.054Z,6.07
2022-11-23T16:37:22.743Z,6.10
2022-11-23T16:39:51.287Z,6.50
2022-11-23T16:42:19.794Z,6.23
2022-11-23T16:44:49.670Z,6.53
2022-11-23T16:47:26.192Z,6.10
2022-11-23T16:49:55.480Z,6.57
2022-11-23T16:52:24.419Z,7.40
2022-11-23T16:54:53.840Z,7.67
2022-11-23T16:57:29.952Z,8.47
2022-11-23T17:00:03.474Z,8.20
2022-11-23T17:02:32.230Z,7.70
2022-11-23T17:05:00.722Z,7.30
2022-11-23T17:07:29.399Z,7.80
2022-11-23T17:09:59.165Z,8.17
2022-11-23T17:12:30.098Z,8.10
2022-11-23T17:15:01.090Z,28.70
2022-11-23T17:17:30.670Z,14.20
2022-11-23T17:20:03.910Z,8.60
2022-11-23T17:22:33.068Z,8.70
2022-11-23T17:25:01.563Z,13.03
2022-11-23T17:27:33.738Z,13.67
2022-11-23T17:30:10.822Z,12.03
2022-11-23T17:32:39.143Z,9.50
2022-11-23T17:35:10.776Z,6.80
2022-11-23T17:37:39.355Z,6.70
2022-11-23T17:40:18.831Z,7.20
2022-11-23T17:42:48.059Z,5.50
2022-11-23T17:45:18.048Z,6.13
2022-11-23T17:47:46.823Z,7.30
2022-11-23T17:50:19.410Z,6.47
2022-11-23T17:52:48.515Z,7.43
2022-11-23T17:55:17.534Z,7.97
2022-11-23T17:57:46.088Z,8.40
2022-11-23T18:00:20.195Z,7.77
2022-11-23T18:02:48.611Z,7.00
2022-11-23T18:05:21.511Z,8.80
2022-11-23T18:07:50.766Z,9.37
2022-11-23T18:10:19.461Z,9.23
2022-11-23T18:12:48.138Z,9.23
2022-11-23T18:15:18.025Z,8.70
2022-11-23T18:17:46.496Z,8.80
2022-11-23T18:20:15.661Z,8.50
2022-11-23T18:22:46.102Z,9.27
2022-11-23T18:25:14.477Z,8.80
2022-11-23T18:27:42.715Z,7.63
2022-11-23T18:30:12.019Z,7.90
2022-11-23T18:32:45.315Z,8.20
2022-11-23T18:35:16.679Z,9.37
2022-11-23T18:37:45.163Z,8.50
2022-11-23T18:40:14.578Z,7.60
2022-11-23T18:42:42.965Z,7.27
2022-11-23T18:45:11.778Z,8.00
2022-11-23T18:47:43.739Z,7.80
2022-11-23T18:50:12.287Z,9.00
2022-11-23T18:52:43.039Z,8.80
2022-11-23T18:55:11.607Z,21.00
2022-11-23T18:57:40.078Z,12.00
2022-11-23T19:00:10.198Z,8.33
2022-11-23T19:02:39.388Z,7.93
2022-11-23T19:05:09.560Z,8.10
2022-11-23T19:07:38.046Z,7.20
2022-11-23T19:10:07.072Z,8.33
2022-11-23T19:12:35.503Z,8.10
2022-11-23T19:15:05.306Z,8.73
2022-11-23T19:17:33.776Z,9.03
2022-11-23T19:20:04.608Z,7.33
2022-11-23T19:22:35.687Z,7.20
2022-11-23T19:25:04.202Z,6.93
2022-11-23T19:27:36.961Z,6.90
2022-11-23T19:30:09.999Z,7.30
2022-11-23T19:32:38.916Z,8.17
2022-11-23T19:35:08.055Z,11.47
2022-11-23T19:37:42.928Z,9.07
2022-11-23T19:40:13.140Z,8.93
2022-11-23T19:42:42.718Z,7.83
2022-11-23T19:45:11.528Z,8.67
2022-11-23T19:47:39.965Z,9.00
2022-11-23T19:50:09.604Z,8.40
2022-11-23T19:53:09.862Z,8.20
2022-11-23T19:55:27.920Z,9.07
2022-11-23T19:57:56.300Z,7.53
2022-11-23T20:00:24.886Z,9.00
2022-11-23T20:02:53.929Z,9.63
2022-11-23T20:05:22.236Z,9.70
2022-11-23T20:07:50.796Z,9.03
2022-11-23T20:10:19.307Z,12.63
2022-11-23T20:12:49.035Z,11.00
2022-11-23T20:15:17.651Z,10.80
2022-11-23T20:17:48.702Z,19.80
2022-11-23T20:20:17.387Z,14.67
2022-11-23T20:22:48.419Z,11.47
2022-11-23T20:25:17.696Z,10.00
2022-11-23T20:27:46.177Z,10.60
2022-11-23T20:30:18.990Z,10.27
2022-11-23T20:32:50.417Z,19.23
2022-11-23T20:35:20.278Z,13.70
2022-11-23T20:37:48.690Z,12.47
2022-11-23T20:40:17.136Z,11.60
2022-11-23T20:42:45.551Z,10.43
2022-11-23T20:45:15.511Z,11.30
2022-11-23T20:47:44.257Z,10.57
2022-11-23T20:50:13.582Z,11.20
2022-11-23T20:52:42.144Z,11.07
2022-11-23T20:55:10.926Z,10.23
2022-11-23T20:57:39.339Z,10.77
2022-11-23T21:00:09.202Z,11.30
2022-11-23T21:02:39.136Z,12.80
2022-11-23T21:05:10.230Z,11.37
2022-11-23T21:07:38.659Z,10.70
2022-11-23T21:10:07.927Z,11.83
2022-11-23T21:12:53.572Z,11.73
2022-11-23T21:15:22.589Z,11.00
2022-11-23T21:17:52.348Z,10.30
2022-11-23T21:20:20.943Z,10.60
2022-11-23T21:22:49.393Z,9.80
2022-11-23T21:25:17.835Z,10.53
2022-11-23T21:27:46.244Z,11.53
2022-11-23T21:30:15.108Z,10.73
2022-11-23T21:32:43.551Z,10.70
2022-11-23T21:35:13.443Z,10.13
2022-11-23T21:37:42.032Z,10.77
2022-11-23T21:40:11.986Z,9.70
2022-11-23T21:42:40.523Z,11.17
2022-11-23T21:45:10.109Z,12.23
2022-11-23T21:47:38.635Z,13.60
2022-11-23T21:50:10.689Z,22.33
2022-11-23T21:52:40.462Z,20.73
2022-11-23T21:55:10.223Z,12.50
2022-11-23T21:57:38.630Z,11.47
2022-11-23T22:00:10.746Z,11.50
2022-11-23T22:02:40.558Z,11.70
2022-11-23T22:05:11.423Z,11.03
2022-11-23T22:07:47.440Z,11.33
2022-11-23T22:10:23.755Z,11.13
2022-11-23T22:12:52.003Z,10.33
2022-11-23T22:15:20.319Z,10.50
2022-11-23T22:17:48.989Z,11.00
2022-11-23T22:20:18.763Z,10.03
2022-11-23T22:22:49.229Z,11.30
2022-11-23T22:25:19.730Z,12.40
2022-11-23T22:27:48.059Z,11.30
2022-11-23T22:30:20.027Z,9.77
2022-11-23T22:32:48.391Z,9.63
2022-11-23T22:35:16.931Z,9.57
2022-11-23T22:37:45.318Z,9.93
2022-11-23T22:40:15.920Z,9.47
2022-11-23T22:42:45.051Z,10.20
2022-11-23T22:45:13.553Z,9.50
2022-11-23T22:47:41.918Z,10.30
2022-11-23T22:50:11.542Z,11.70
2022-11-23T22:52:39.903Z,12.60
2022-11-23T22:55:08.757Z,10.33
2022-11-23T22:57:40.914Z,10.03
2022-11-23T23:00:10.970Z,10.10
2022-11-23T23:02:39.421Z,9.60
2022-11-23T23:05:08.326Z,9.50
2022-11-23T23:07:36.723Z,9.63
2022-11-23T23:10:05.631Z,10.00
2022-11-23T23:12:33.906Z,9.73
2022-11-23T23:15:04.088Z,10.30
2022-11-23T23:17:32.595Z,9.80
2022-11-23T23:20:01.170Z,10.23
2022-11-23T23:22:29.447Z,10.17
2022-11-23T23:24:57.783Z,9.33
2022-11-23T23:27:28.131Z,9.40
2022-11-23T23:29:56.410Z,9.97
2022-11-23T23:32:26.391Z,9.80
2022-11-23T23:34:54.699Z,9.43
2022-11-23T23:37:23.171Z,9.37
2022-11-23T23:39:51.510Z,10.30
2022-11-23T23:42:21.171Z,11.30
2022-11-23T23:44:49.442Z,12.00
2022-11-23T23:47:17.786Z,10.93
2022-11-23T23:49:47.543Z,9.80
2022-11-23T23:52:16.124Z,9.30
2022-11-23T23:54:44.424Z,9.60
2022-11-23T23:57:12.883Z,8.97
2022-11-23T23:59:41.214Z,10.20
